sensor_id;sensor_type;location;lat;lon;timestamp;P1;durP1;ratioP1;P2;durP2;ratioP2
78489;SDS011;67776;52.012;4.736;2023-06-19T00:01:12;12.47;;;7.40;;
78489;SDS011;67776;52.012;4.736;2023-06-19T00:03:37;10.70;;;6.00;;
78489;SDS011;67776;52.012;4.736;2023-06-19T00:06:02;8.87;;;5.50;;
78489;SDS011;67776;52.012;4.736;2023-06-19T00:08:28;8.30;;;4.97;;
78489;SDS011;67776;52.012;4.736;2023-06-19T00:10:54;7.97;;;4.77;;
78489;SDS011;67776;52.012;4.736;2023-06-19T00:13:19;8.25;;;4.20;;
78489;SDS011;67776;52.012;4.736;2023-06-19T00:15:45;8.07;;;3.97;;
78489;SDS011;67776;52.012;4.736;2023-06-19T00:18:10;8.83;;;3.77;;
78489;SDS011;67776;52.012;4.736;2023-06-19T00:20:35;6.33;;;3.67;;
78489;SDS011;67776;52.012;4.736;2023-06-19T00:23:01;9.20;;;3.25;;
78489;SDS011;67776;52.012;4.736;2023-06-19T00:25:26;6.30;;;3.30;;
78489;SDS011;67776;52.012;4.736;2023-06-19T00:27:51;6.53;;;3.30;;
78489;SDS011;67776;52.012;4.736;2023-06-19T00:30:17;6.47;;;2.80;;
78489;SDS011;67776;52.012;4.736;2023-06-19T00:32:42;7.70;;;2.75;;
78489;SDS011;67776;52.012;4.736;2023-06-19T00:35:15;6.93;;;2.90;;
78489;SDS011;67776;52.012;4.736;2023-06-19T00:37:42;5.85;;;2.88;;
78489;SDS011;67776;52.012;4.736;2023-06-19T00:40:16;6.03;;;2.60;;
78489;SDS011;67776;52.012;4.736;2023-06-19T00:42:49;7.25;;;2.65;;
78489;SDS011;67776;52.012;4.736;2023-06-19T00:45:14;5.20;;;2.50;;
78489;SDS011;67776;52.012;4.736;2023-06-19T00:47:40;4.90;;;2.40;;
78489;SDS011;67776;52.012;4.736;2023-06-19T00:50:05;8.67;;;2.60;;
78489;SDS011;67776;52.012;4.736;2023-06-19T00:52:31;5.32;;;2.42;;
78489;SDS011;67776;52.012;4.736;2023-06-19T00:54:56;5.30;;;2.70;;
78489;SDS011;67776;52.012;4.736;2023-06-19T00:57:22;5.67;;;2.90;;
78489;SDS011;67776;52.012;4.736;2023-06-19T00:59:48;5.68;;;2.70;;
78489;SDS011;67776;52.012;4.736;2023-06-19T01:02:14;6.45;;;2.70;;
78489;SDS011;67776;52.012;4.736;2023-06-19T01:04:40;5.57;;;2.90;;
78489;SDS011;67776;52.012;4.736;2023-06-19T01:07:08;7.43;;;2.83;;
78489;SDS011;67776;52.012;4.736;2023-06-19T01:09:39;6.85;;;3.03;;
78489;SDS011;67776;52.012;4.736;2023-06-19T01:12:55;6.15;;;3.30;;
78489;SDS011;67776;52.012;4.736;2023-06-19T01:15:03;6.40;;;3.20;;
78489;SDS011;67776;52.012;4.736;2023-06-19T01:17:30;6.00;;;3.03;;
78489;SDS011;67776;52.012;4.736;2023-06-19T01:19:56;7.28;;;3.40;;
78489;SDS011;67776;52.012;4.736;2023-06-19T01:22:28;9.55;;;3.00;;
78489;SDS011;67776;52.012;4.736;2023-06-19T01:24:54;7.55;;;3.55;;
78489;SDS011;67776;52.012;4.736;2023-06-19T01:27:20;8.03;;;3.80;;
78489;SDS011;67776;52.012;4.736;2023-06-19T01:29:46;8.07;;;4.95;;
78489;SDS011;67776;52.012;4.736;2023-06-19T01:32:23;9.73;;;4.80;;
78489;SDS011;67776;52.012;4.736;2023-06-19T01:35:10;9.95;;;5.90;;
78489;SDS011;67776;52.012;4.736;2023-06-19T01:37:38;8.40;;;5.50;;
78489;SDS011;67776;52.012;4.736;2023-06-19T01:40:05;9.38;;;5.60;;
78489;SDS011;67776;52.012;4.736;2023-06-19T01:42:34;10.90;;;6.60;;
78489;SDS011;67776;52.012;4.736;2023-06-19T01:45:02;10.63;;;6.03;;
78489;SDS011;67776;52.012;4.736;2023-06-19T01:47:28;9.57;;;6.03;;
78489;SDS011;67776;52.012;4.736;2023-06-19T01:49:53;10.40;;;6.30;;
78489;SDS011;67776;52.012;4.736;2023-06-19T01:52:19;10.47;;;6.47;;
78489;SDS011;67776;52.012;4.736;2023-06-19T01:54:44;10.43;;;6.60;;
78489;SDS011;67776;52.012;4.736;2023-06-19T01:57:09;8.90;;;6.33;;
78489;SDS011;67776;52.012;4.736;2023-06-19T01:59:39;10.07;;;6.10;;
78489;SDS011;67776;52.012;4.736;2023-06-19T02:02:04;10.25;;;6.25;;
78489;SDS011;67776;52.012;4.736;2023-06-19T02:04:31;9.90;;;6.57;;
78489;SDS011;67776;52.012;4.736;2023-06-19T02:06:57;10.23;;;6.47;;
78489;SDS011;67776;52.012;4.736;2023-06-19T02:09:22;9.93;;;6.90;;
78489;SDS011;67776;52.012;4.736;2023-06-19T02:11:47;11.33;;;6.87;;
78489;SDS011;67776;52.012;4.736;2023-06-19T02:14:12;9.75;;;6.40;;
78489;SDS011;67776;52.012;4.736;2023-06-19T02:16:38;10.93;;;6.83;;
78489;SDS011;67776;52.012;4.736;2023-06-19T02:19:08;9.02;;;6.53;;
78489;SDS011;67776;52.012;4.736;2023-06-19T02:21:36;12.90;;;7.40;;
78489;SDS011;67776;52.012;4.736;2023-06-19T02:24:02;12.48;;;7.10;;
78489;SDS011;67776;52.012;4.736;2023-06-19T02:26:28;11.50;;;7.43;;
78489;SDS011;67776;52.012;4.736;2023-06-19T02:28:54;11.60;;;7.82;;
78489;SDS011;67776;52.012;4.736;2023-06-19T02:31:23;10.55;;;7.40;;
78489;SDS011;67776;52.012;4.736;2023-06-19T02:33:49;12.00;;;7.97;;
78489;SDS011;67776;52.012;4.736;2023-06-19T02:36:15;13.60;;;8.20;;
78489;SDS011;67776;52.012;4.736;2023-06-19T02:38:47;15.10;;;9.15;;
78489;SDS011;67776;52.012;4.736;2023-06-19T02:41:13;15.68;;;9.95;;
78489;SDS011;67776;52.012;4.736;2023-06-19T02:43:39;16.57;;;9.83;;
78489;SDS011;67776;52.012;4.736;2023-06-19T02:46:07;17.63;;;10.18;;
78489;SDS011;67776;52.012;4.736;2023-06-19T02:48:33;16.67;;;10.13;;
78489;SDS011;67776;52.012;4.736;2023-06-19T02:50:58;20.17;;;12.27;;
78489;SDS011;67776;52.012;4.736;2023-06-19T02:53:24;21.40;;;12.00;;
78489;SDS011;67776;52.012;4.736;2023-06-19T02:55:49;20.83;;;13.23;;
78489;SDS011;67776;52.012;4.736;2023-06-19T02:58:14;21.53;;;12.57;;
78489;SDS011;67776;52.012;4.736;2023-06-19T03:00:39;19.30;;;11.93;;
78489;SDS011;67776;52.012;4.736;2023-06-19T03:03:05;18.90;;;11.93;;
78489;SDS011;67776;52.012;4.736;2023-06-19T03:05:30;18.40;;;12.13;;
78489;SDS011;67776;52.012;4.736;2023-06-19T03:07:56;18.52;;;11.88;;
78489;SDS011;67776;52.012;4.736;2023-06-19T03:10:21;16.37;;;10.80;;
78489;SDS011;67776;52.012;4.736;2023-06-19T03:12:46;16.60;;;10.67;;
78489;SDS011;67776;52.012;4.736;2023-06-19T03:15:12;20.37;;;11.30;;
78489;SDS011;67776;52.012;4.736;2023-06-19T03:17:37;19.57;;;11.33;;
78489;SDS011;67776;52.012;4.736;2023-06-19T03:20:02;16.47;;;10.23;;
78489;SDS011;67776;52.012;4.736;2023-06-19T03:22:30;16.27;;;10.25;;
78489;SDS011;67776;52.012;4.736;2023-06-19T03:24:56;17.90;;;10.17;;
78489;SDS011;67776;52.012;4.736;2023-06-19T03:27:21;17.10;;;10.35;;
78489;SDS011;67776;52.012;4.736;2023-06-19T03:29:46;14.83;;;9.83;;
78489;SDS011;67776;52.012;4.736;2023-06-19T03:32:12;16.37;;;10.20;;
78489;SDS011;67776;52.012;4.736;2023-06-19T03:34:37;15.17;;;9.80;;
78489;SDS011;67776;52.012;4.736;2023-06-19T03:37:02;18.23;;;10.17;;
78489;SDS011;67776;52.012;4.736;2023-06-19T03:39:28;16.10;;;9.73;;
78489;SDS011;67776;52.012;4.736;2023-06-19T03:41:53;15.75;;;9.93;;
78489;SDS011;67776;52.012;4.736;2023-06-19T03:44:19;15.83;;;8.60;;
78489;SDS011;67776;52.012;4.736;2023-06-19T03:46:45;12.37;;;8.20;;
78489;SDS011;67776;52.012;4.736;2023-06-19T03:49:12;13.52;;;7.93;;
78489;SDS011;67776;52.012;4.736;2023-06-19T03:51:37;15.17;;;7.67;;
78489;SDS011;67776;52.012;4.736;2023-06-19T03:56:31;11.88;;;7.55;;
78489;SDS011;67776;52.012;4.736;2023-06-19T03:58:56;14.70;;;8.00;;
78489;SDS011;67776;52.012;4.736;2023-06-19T04:01:22;11.77;;;7.50;;
78489;SDS011;67776;52.012;4.736;2023-06-19T04:03:47;14.37;;;7.60;;
78489;SDS011;67776;52.012;4.736;2023-06-19T04:06:12;12.43;;;7.60;;
78489;SDS011;67776;52.012;4.736;2023-06-19T04:08:38;12.03;;;6.93;;
78489;SDS011;67776;52.012;4.736;2023-06-19T04:11:03;11.93;;;6.60;;
78489;SDS011;67776;52.012;4.736;2023-06-19T04:13:28;11.63;;;6.50;;
78489;SDS011;67776;52.012;4.736;2023-06-19T04:15:53;10.47;;;6.27;;
78489;SDS011;67776;52.012;4.736;2023-06-19T04:18:19;10.53;;;6.70;;
78489;SDS011;67776;52.012;4.736;2023-06-19T04:20:44;10.77;;;7.47;;
78489;SDS011;67776;52.012;4.736;2023-06-19T04:23:09;12.45;;;7.60;;
78489;SDS011;67776;52.012;4.736;2023-06-19T04:25:35;14.40;;;8.70;;
78489;SDS011;67776;52.012;4.736;2023-06-19T04:28:00;11.83;;;7.83;;
78489;SDS011;67776;52.012;4.736;2023-06-19T04:30:28;10.48;;;6.32;;
78489;SDS011;67776;52.012;4.736;2023-06-19T04:32:54;10.13;;;6.40;;
78489;SDS011;67776;52.012;4.736;2023-06-19T04:35:19;9.20;;;6.00;;
78489;SDS011;67776;52.012;4.736;2023-06-19T04:37:44;10.13;;;5.63;;
78489;SDS011;67776;52.012;4.736;2023-06-19T04:40:10;8.30;;;5.50;;
78489;SDS011;67776;52.012;4.736;2023-06-19T04:42:36;8.47;;;4.63;;
78489;SDS011;67776;52.012;4.736;2023-06-19T04:45:03;8.77;;;5.45;;
78489;SDS011;67776;52.012;4.736;2023-06-19T04:47:32;9.07;;;5.20;;
78489;SDS011;67776;52.012;4.736;2023-06-19T04:49:57;9.88;;;5.40;;
78489;SDS011;67776;52.012;4.736;2023-06-19T04:52:25;8.23;;;5.27;;
78489;SDS011;67776;52.012;4.736;2023-06-19T04:54:51;8.97;;;5.37;;
78489;SDS011;67776;52.012;4.736;2023-06-19T04:57:17;9.63;;;5.93;;
78489;SDS011;67776;52.012;4.736;2023-06-19T04:59:43;10.40;;;6.87;;
78489;SDS011;67776;52.012;4.736;2023-06-19T05:02:11;10.05;;;6.20;;
78489;SDS011;67776;52.012;4.736;2023-06-19T05:04:36;12.90;;;7.20;;
78489;SDS011;67776;52.012;4.736;2023-06-19T05:07:02;10.27;;;6.55;;
78489;SDS011;67776;52.012;4.736;2023-06-19T05:09:27;10.97;;;6.90;;
78489;SDS011;67776;52.012;4.736;2023-06-19T05:11:53;11.40;;;6.63;;
78489;SDS011;67776;52.012;4.736;2023-06-19T05:14:18;10.77;;;6.97;;
78489;SDS011;67776;52.012;4.736;2023-06-19T05:16:44;12.13;;;6.65;;
78489;SDS011;67776;52.012;4.736;2023-06-19T05:19:09;11.57;;;7.10;;
78489;SDS011;67776;52.012;4.736;2023-06-19T05:21:34;12.23;;;7.17;;
78489;SDS011;67776;52.012;4.736;2023-06-19T05:24:01;13.77;;;7.60;;
78489;SDS011;67776;52.012;4.736;2023-06-19T05:26:26;14.90;;;7.55;;
78489;SDS011;67776;52.012;4.736;2023-06-19T05:28:52;14.33;;;8.43;;
78489;SDS011;67776;52.012;4.736;2023-06-19T05:31:18;14.50;;;8.60;;
78489;SDS011;67776;52.012;4.736;2023-06-19T05:33:44;12.33;;;8.00;;
78489;SDS011;67776;52.012;4.736;2023-06-19T05:36:10;15.77;;;8.90;;
78489;SDS011;67776;52.012;4.736;2023-06-19T05:38:36;13.23;;;8.20;;
78489;SDS011;67776;52.012;4.736;2023-06-19T05:41:02;14.05;;;8.60;;
78489;SDS011;67776;52.012;4.736;2023-06-19T05:43:27;13.98;;;8.38;;
78489;SDS011;67776;52.012;4.736;2023-06-19T05:45:53;13.77;;;8.63;;
78489;SDS011;67776;52.012;4.736;2023-06-19T05:48:20;15.13;;;8.90;;
78489;SDS011;67776;52.012;4.736;2023-06-19T05:50:46;16.83;;;10.33;;
78489;SDS011;67776;52.012;4.736;2023-06-19T05:53:11;16.60;;;9.97;;
78489;SDS011;67776;52.012;4.736;2023-06-19T05:55:37;19.40;;;10.47;;
78489;SDS011;67776;52.012;4.736;2023-06-19T05:58:02;16.00;;;11.07;;
78489;SDS011;67776;52.012;4.736;2023-06-19T06:00:29;18.00;;;11.33;;
78489;SDS011;67776;52.012;4.736;2023-06-19T06:02:55;19.02;;;11.75;;
78489;SDS011;67776;52.012;4.736;2023-06-19T06:05:25;18.35;;;11.77;;
78489;SDS011;67776;52.012;4.736;2023-06-19T06:07:51;14.93;;;10.07;;
78489;SDS011;67776;52.012;4.736;2023-06-19T06:10:23;16.97;;;10.20;;
78489;SDS011;67776;52.012;4.736;2023-06-19T06:12:50;16.35;;;10.20;;
78489;SDS011;67776;52.012;4.736;2023-06-19T06:15:15;17.07;;;10.63;;
78489;SDS011;67776;52.012;4.736;2023-06-19T06:17:40;17.50;;;11.95;;
78489;SDS011;67776;52.012;4.736;2023-06-19T06:20:06;17.37;;;10.73;;
78489;SDS011;67776;52.012;4.736;2023-06-19T06:22:37;16.95;;;10.35;;
78489;SDS011;67776;52.012;4.736;2023-06-19T06:25:03;20.27;;;11.90;;
78489;SDS011;67776;52.012;4.736;2023-06-19T06:27:29;19.00;;;11.65;;
78489;SDS011;67776;52.012;4.736;2023-06-19T06:29:54;18.73;;;11.03;;
78489;SDS011;67776;52.012;4.736;2023-06-19T06:32:20;21.87;;;12.40;;
78489;SDS011;67776;52.012;4.736;2023-06-19T06:34:45;22.37;;;12.40;;
78489;SDS011;67776;52.012;4.736;2023-06-19T06:37:11;18.97;;;11.80;;
78489;SDS011;67776;52.012;4.736;2023-06-19T06:39:36;18.43;;;11.77;;
78489;SDS011;67776;52.012;4.736;2023-06-19T06:42:03;20.30;;;12.10;;
78489;SDS011;67776;52.012;4.736;2023-06-19T06:44:30;18.10;;;11.68;;
78489;SDS011;67776;52.012;4.736;2023-06-19T06:46:55;20.73;;;11.90;;
78489;SDS011;67776;52.012;4.736;2023-06-19T06:49:20;19.57;;;12.00;;
78489;SDS011;67776;52.012;4.736;2023-06-19T06:51:47;21.38;;;11.50;;
78489;SDS011;67776;52.012;4.736;2023-06-19T06:54:12;18.87;;;11.50;;
78489;SDS011;67776;52.012;4.736;2023-06-19T06:56:38;20.20;;;11.30;;
78489;SDS011;67776;52.012;4.736;2023-06-19T06:59:03;17.80;;;11.30;;
78489;SDS011;67776;52.012;4.736;2023-06-19T07:01:29;19.03;;;11.50;;
78489;SDS011;67776;52.012;4.736;2023-06-19T07:03:54;21.23;;;12.23;;
78489;SDS011;67776;52.012;4.736;2023-06-19T07:06:19;15.55;;;10.95;;
78489;SDS011;67776;52.012;4.736;2023-06-19T07:08:45;18.27;;;11.17;;
78489;SDS011;67776;52.012;4.736;2023-06-19T07:11:12;22.93;;;10.33;;
78489;SDS011;67776;52.012;4.736;2023-06-19T07:13:38;17.30;;;10.60;;
78489;SDS011;67776;52.012;4.736;2023-06-19T07:16:03;18.70;;;11.30;;
78489;SDS011;67776;52.012;4.736;2023-06-19T07:18:29;17.83;;;10.30;;
78489;SDS011;67776;52.012;4.736;2023-06-19T07:20:55;20.70;;;10.70;;
78489;SDS011;67776;52.012;4.736;2023-06-19T07:23:20;18.90;;;10.13;;
78489;SDS011;67776;52.012;4.736;2023-06-19T07:25:46;17.67;;;10.67;;
78489;SDS011;67776;52.012;4.736;2023-06-19T07:28:12;16.67;;;10.82;;
78489;SDS011;67776;52.012;4.736;2023-06-19T07:30:38;19.80;;;10.57;;
78489;SDS011;67776;52.012;4.736;2023-06-19T07:33:04;17.00;;;10.18;;
78489;SDS011;67776;52.012;4.736;2023-06-19T07:35:29;18.23;;;11.00;;
78489;SDS011;67776;52.012;4.736;2023-06-19T07:37:54;21.23;;;12.30;;
78489;SDS011;67776;52.012;4.736;2023-06-19T07:40:20;21.90;;;13.73;;
78489;SDS011;67776;52.012;4.736;2023-06-19T07:42:45;23.58;;;14.18;;
78489;SDS011;67776;52.012;4.736;2023-06-19T07:45:11;23.33;;;15.13;;
78489;SDS011;67776;52.012;4.736;2023-06-19T07:47:37;21.20;;;14.07;;
78489;SDS011;67776;52.012;4.736;2023-06-19T07:50:02;20.37;;;13.40;;
78489;SDS011;67776;52.012;4.736;2023-06-19T07:52:28;23.87;;;14.73;;
78489;SDS011;67776;52.012;4.736;2023-06-19T07:54:54;28.65;;;16.33;;
78489;SDS011;67776;52.012;4.736;2023-06-19T07:57:21;26.90;;;15.67;;
78489;SDS011;67776;52.012;4.736;2023-06-19T07:59:47;27.02;;;16.00;;
78489;SDS011;67776;52.012;4.736;2023-06-19T08:02:14;26.33;;;15.55;;
78489;SDS011;67776;52.012;4.736;2023-06-19T08:04:39;27.77;;;15.93;;
78489;SDS011;67776;52.012;4.736;2023-06-19T08:07:05;24.00;;;15.37;;
78489;SDS011;67776;52.012;4.736;2023-06-19T08:09:30;26.38;;;16.58;;
78489;SDS011;67776;52.012;4.736;2023-06-19T08:11:56;25.63;;;15.23;;
78489;SDS011;67776;52.012;4.736;2023-06-19T08:14:22;25.13;;;15.50;;
78489;SDS011;67776;52.012;4.736;2023-06-19T08:16:47;23.87;;;14.70;;
78489;SDS011;67776;52.012;4.736;2023-06-19T08:19:12;23.30;;;14.37;;
78489;SDS011;67776;52.012;4.736;2023-06-19T08:21:38;25.13;;;16.23;;
78489;SDS011;67776;52.012;4.736;2023-06-19T08:24:03;23.97;;;14.53;;
78489;SDS011;67776;52.012;4.736;2023-06-19T08:26:28;25.43;;;15.33;;
78489;SDS011;67776;52.012;4.736;2023-06-19T08:28:54;26.30;;;14.90;;
78489;SDS011;67776;52.012;4.736;2023-06-19T08:31:19;28.37;;;15.33;;
78489;SDS011;67776;52.012;4.736;2023-06-19T08:33:46;22.90;;;15.07;;
78489;SDS011;67776;52.012;4.736;2023-06-19T08:36:13;25.67;;;15.23;;
78489;SDS011;67776;52.012;4.736;2023-06-19T08:38:39;23.50;;;14.10;;
78489;SDS011;67776;52.012;4.736;2023-06-19T08:41:04;24.10;;;13.83;;
78489;SDS011;67776;52.012;4.736;2023-06-19T08:43:29;25.00;;;15.00;;
78489;SDS011;67776;52.012;4.736;2023-06-19T08:46:06;24.27;;;14.27;;
78489;SDS011;67776;52.012;4.736;2023-06-19T08:48:35;23.75;;;14.18;;
78489;SDS011;67776;52.012;4.736;2023-06-19T08:51:01;25.20;;;15.30;;
78489;SDS011;67776;52.012;4.736;2023-06-19T08:53:29;23.92;;;14.98;;
78489;SDS011;67776;52.012;4.736;2023-06-19T08:55:54;26.47;;;15.73;;
78489;SDS011;67776;52.012;4.736;2023-06-19T08:58:22;25.15;;;15.32;;
78489;SDS011;67776;52.012;4.736;2023-06-19T09:00:48;25.67;;;15.47;;
78489;SDS011;67776;52.012;4.736;2023-06-19T09:03:18;26.08;;;15.55;;
78489;SDS011;67776;52.012;4.736;2023-06-19T09:05:47;25.25;;;16.27;;
78489;SDS011;67776;52.012;4.736;2023-06-19T09:08:19;26.23;;;15.57;;
78489;SDS011;67776;52.012;4.736;2023-06-19T09:10:59;26.23;;;16.25;;
78489;SDS011;67776;52.012;4.736;2023-06-19T09:13:28;25.53;;;15.50;;
78489;SDS011;67776;52.012;4.736;2023-06-19T09:15:58;25.27;;;16.27;;
78489;SDS011;67776;52.012;4.736;2023-06-19T09:18:25;22.33;;;15.30;;
78489;SDS011;67776;52.012;4.736;2023-06-19T09:20:52;25.50;;;16.50;;
78489;SDS011;67776;52.012;4.736;2023-06-19T09:23:18;24.58;;;15.30;;
78489;SDS011;67776;52.012;4.736;2023-06-19T09:28:23;24.88;;;15.63;;
78489;SDS011;67776;52.012;4.736;2023-06-19T09:30:57;24.43;;;15.80;;
78489;SDS011;67776;52.012;4.736;2023-06-19T09:33:27;23.90;;;15.48;;
78489;SDS011;67776;52.012;4.736;2023-06-19T09:35:55;26.52;;;17.13;;
78489;SDS011;67776;52.012;4.736;2023-06-19T09:38:26;24.70;;;17.42;;
78489;SDS011;67776;52.012;4.736;2023-06-19T09:40:53;26.35;;;17.05;;
78489;SDS011;67776;52.012;4.736;2023-06-19T09:43:21;25.37;;;15.70;;
78489;SDS011;67776;52.012;4.736;2023-06-19T09:45:50;24.48;;;16.92;;
78489;SDS011;67776;52.012;4.736;2023-06-19T09:48:18;24.77;;;16.42;;
78489;SDS011;67776;52.012;4.736;2023-06-19T09:50:47;23.80;;;16.52;;
78489;SDS011;67776;52.012;4.736;2023-06-19T09:53:15;26.07;;;17.37;;
78489;SDS011;67776;52.012;4.736;2023-06-19T09:55:41;26.13;;;17.15;;
78489;SDS011;67776;52.012;4.736;2023-06-19T09:58:07;27.35;;;17.55;;
78489;SDS011;67776;52.012;4.736;2023-06-19T10:00:32;25.60;;;16.93;;
78489;SDS011;67776;52.012;4.736;2023-06-19T10:02:58;24.70;;;16.73;;
78489;SDS011;67776;52.012;4.736;2023-06-19T10:05:31;26.92;;;17.17;;
78489;SDS011;67776;52.012;4.736;2023-06-19T10:07:57;26.40;;;17.40;;
78489;SDS011;67776;52.012;4.736;2023-06-19T10:10:27;24.00;;;16.43;;
78489;SDS011;67776;52.012;4.736;2023-06-19T10:12:53;24.30;;;16.67;;
78489;SDS011;67776;52.012;4.736;2023-06-19T10:15:21;27.63;;;17.38;;
78489;SDS011;67776;52.012;4.736;2023-06-19T10:17:49;24.90;;;17.00;;
78489;SDS011;67776;52.012;4.736;2023-06-19T10:20:29;22.00;;;15.43;;
78489;SDS011;67776;52.012;4.736;2023-06-19T10:23:41;21.57;;;15.30;;
78489;SDS011;67776;52.012;4.736;2023-06-19T10:28:21;23.60;;;15.30;;
78489;SDS011;67776;52.012;4.736;2023-06-19T10:30:54;22.00;;;15.07;;
78489;SDS011;67776;52.012;4.736;2023-06-19T10:33:24;21.70;;;14.10;;
78489;SDS011;67776;52.012;4.736;2023-06-19T10:35:54;18.83;;;14.00;;
78489;SDS011;67776;52.012;4.736;2023-06-19T10:38:20;17.23;;;13.70;;
78489;SDS011;67776;52.012;4.736;2023-06-19T10:40:46;19.77;;;14.75;;
78489;SDS011;67776;52.012;4.736;2023-06-19T10:43:12;22.97;;;15.70;;
78489;SDS011;67776;52.012;4.736;2023-06-19T10:45:44;22.35;;;15.45;;
78489;SDS011;67776;52.012;4.736;2023-06-19T10:48:09;22.43;;;14.40;;
78489;SDS011;67776;52.012;4.736;2023-06-19T10:50:35;22.53;;;15.00;;
78489;SDS011;67776;52.012;4.736;2023-06-19T10:53:03;23.95;;;15.52;;
78489;SDS011;67776;52.012;4.736;2023-06-19T10:55:29;18.48;;;13.13;;
78489;SDS011;67776;52.012;4.736;2023-06-19T10:57:54;18.60;;;13.43;;
78489;SDS011;67776;52.012;4.736;2023-06-19T11:00:30;17.80;;;12.93;;
78489;SDS011;67776;52.012;4.736;2023-06-19T11:02:58;18.07;;;12.73;;
78489;SDS011;67776;52.012;4.736;2023-06-19T11:05:25;18.92;;;14.00;;
78489;SDS011;67776;52.012;4.736;2023-06-19T11:07:55;17.60;;;12.98;;
78489;SDS011;67776;52.012;4.736;2023-06-19T11:10:22;16.95;;;12.20;;
78489;SDS011;67776;52.012;4.736;2023-06-19T11:12:52;15.97;;;11.93;;
78489;SDS011;67776;52.012;4.736;2023-06-19T11:15:19;16.90;;;11.55;;
78489;SDS011;67776;52.012;4.736;2023-06-19T11:17:44;17.30;;;12.23;;
78489;SDS011;67776;52.012;4.736;2023-06-19T11:20:12;16.87;;;12.30;;
78489;SDS011;67776;52.012;4.736;2023-06-19T11:22:40;17.73;;;13.87;;
78489;SDS011;67776;52.012;4.736;2023-06-19T11:25:06;17.42;;;14.65;;
78489;SDS011;67776;52.012;4.736;2023-06-19T11:27:33;16.95;;;13.80;;
78489;SDS011;67776;52.012;4.736;2023-06-19T11:30:00;19.45;;;14.45;;
78489;SDS011;67776;52.012;4.736;2023-06-19T11:32:35;18.35;;;14.00;;
78489;SDS011;67776;52.012;4.736;2023-06-19T11:35:06;17.43;;;13.80;;
78489;SDS011;67776;52.012;4.736;2023-06-19T11:37:34;18.77;;;13.60;;
78489;SDS011;67776;52.012;4.736;2023-06-19T11:40:00;15.38;;;13.20;;
78489;SDS011;67776;52.012;4.736;2023-06-19T11:42:25;18.83;;;14.10;;
78489;SDS011;67776;52.012;4.736;2023-06-19T11:44:54;16.17;;;13.43;;
78489;SDS011;67776;52.012;4.736;2023-06-19T11:47:31;18.13;;;13.43;;
78489;SDS011;67776;52.012;4.736;2023-06-19T11:49:57;15.48;;;13.18;;
78489;SDS011;67776;52.012;4.736;2023-06-19T11:52:23;18.48;;;12.95;;
78489;SDS011;67776;52.012;4.736;2023-06-19T11:54:48;16.40;;;12.90;;
78489;SDS011;67776;52.012;4.736;2023-06-19T11:57:13;16.07;;;13.20;;
78489;SDS011;67776;52.012;4.736;2023-06-19T11:59:39;16.43;;;11.70;;
78489;SDS011;67776;52.012;4.736;2023-06-19T12:02:05;15.82;;;12.52;;
78489;SDS011;67776;52.012;4.736;2023-06-19T12:04:30;14.87;;;11.87;;
78489;SDS011;67776;52.012;4.736;2023-06-19T12:06:56;17.13;;;12.37;;
78489;SDS011;67776;52.012;4.736;2023-06-19T12:09:22;15.95;;;12.85;;
78489;SDS011;67776;52.012;4.736;2023-06-19T12:11:47;20.80;;;12.87;;
78489;SDS011;67776;52.012;4.736;2023-06-19T12:14:12;16.17;;;12.83;;
78489;SDS011;67776;52.012;4.736;2023-06-19T12:16:38;17.48;;;13.00;;
78489;SDS011;67776;52.012;4.736;2023-06-19T12:19:03;16.40;;;13.20;;
78489;SDS011;67776;52.012;4.736;2023-06-19T12:21:29;16.67;;;13.43;;
78489;SDS011;67776;52.012;4.736;2023-06-19T12:23:54;16.77;;;13.83;;
78489;SDS011;67776;52.012;4.736;2023-06-19T12:26:19;15.63;;;13.10;;
78489;SDS011;67776;52.012;4.736;2023-06-19T12:28:45;16.63;;;12.80;;
78489;SDS011;67776;52.012;4.736;2023-06-19T12:31:11;15.43;;;13.68;;
78489;SDS011;67776;52.012;4.736;2023-06-19T12:33:36;16.03;;;13.23;;
78489;SDS011;67776;52.012;4.736;2023-06-19T12:36:04;14.38;;;11.57;;
78489;SDS011;67776;52.012;4.736;2023-06-19T12:38:30;14.82;;;11.43;;
78489;SDS011;67776;52.012;4.736;2023-06-19T12:40:56;13.30;;;10.60;;
78489;SDS011;67776;52.012;4.736;2023-06-19T12:43:21;13.27;;;10.77;;
78489;SDS011;67776;52.012;4.736;2023-06-19T12:45:47;13.68;;;11.45;;
78489;SDS011;67776;52.012;4.736;2023-06-19T12:48:12;13.80;;;11.47;;
78489;SDS011;67776;52.012;4.736;2023-06-19T12:50:37;12.97;;;11.60;;
78489;SDS011;67776;52.012;4.736;2023-06-19T12:53:03;16.07;;;12.00;;
78489;SDS011;67776;52.012;4.736;2023-06-19T12:55:28;13.97;;;11.13;;
78489;SDS011;67776;52.012;4.736;2023-06-19T12:57:53;13.50;;;10.30;;
78489;SDS011;67776;52.012;4.736;2023-06-19T13:00:19;14.37;;;10.33;;
78489;SDS011;67776;52.012;4.736;2023-06-19T13:02:44;13.40;;;9.60;;
78489;SDS011;67776;52.012;4.736;2023-06-19T13:05:11;12.10;;;9.70;;
78489;SDS011;67776;52.012;4.736;2023-06-19T13:07:36;12.02;;;9.77;;
78489;SDS011;67776;52.012;4.736;2023-06-19T13:10:02;11.77;;;9.07;;
78489;SDS011;67776;52.012;4.736;2023-06-19T13:12:27;12.20;;;8.97;;
78489;SDS011;67776;52.012;4.736;2023-06-19T13:14:52;11.87;;;9.53;;
78489;SDS011;67776;52.012;4.736;2023-06-19T13:17:18;11.33;;;9.33;;
78489;SDS011;67776;52.012;4.736;2023-06-19T13:19:44;13.85;;;9.40;;
78489;SDS011;67776;52.012;4.736;2023-06-19T13:22:09;12.83;;;10.23;;
78489;SDS011;67776;52.012;4.736;2023-06-19T13:24:34;12.67;;;10.17;;
78489;SDS011;67776;52.012;4.736;2023-06-19T13:27:00;13.20;;;10.90;;
78489;SDS011;67776;52.012;4.736;2023-06-19T13:29:25;11.80;;;10.50;;
78489;SDS011;67776;52.012;4.736;2023-06-19T13:31:51;12.57;;;10.17;;
78489;SDS011;67776;52.012;4.736;2023-06-19T13:34:16;11.67;;;8.97;;
78489;SDS011;67776;52.012;4.736;2023-06-19T13:36:43;10.43;;;8.85;;
78489;SDS011;67776;52.012;4.736;2023-06-19T13:39:09;11.10;;;8.60;;
78489;SDS011;67776;52.012;4.736;2023-06-19T13:41:34;10.70;;;8.67;;
78489;SDS011;67776;52.012;4.736;2023-06-19T13:44:00;10.43;;;8.30;;
78489;SDS011;67776;52.012;4.736;2023-06-19T13:46:25;11.07;;;8.97;;
78489;SDS011;67776;52.012;4.736;2023-06-19T13:48:51;12.48;;;8.82;;
78489;SDS011;67776;52.012;4.736;2023-06-19T13:51:17;12.17;;;9.27;;
78489;SDS011;67776;52.012;4.736;2023-06-19T13:53:43;10.85;;;9.15;;
78489;SDS011;67776;52.012;4.736;2023-06-19T13:56:09;11.40;;;9.05;;
78489;SDS011;67776;52.012;4.736;2023-06-19T13:58:35;11.63;;;9.80;;
78489;SDS011;67776;52.012;4.736;2023-06-19T14:01:00;10.87;;;9.77;;
78489;SDS011;67776;52.012;4.736;2023-06-19T14:03:25;12.87;;;9.10;;
78489;SDS011;67776;52.012;4.736;2023-06-19T14:05:50;11.93;;;8.90;;
78489;SDS011;67776;52.012;4.736;2023-06-19T14:08:16;12.37;;;9.20;;
78489;SDS011;67776;52.012;4.736;2023-06-19T14:10:41;11.37;;;8.20;;
78489;SDS011;67776;52.012;4.736;2023-06-19T14:13:06;11.80;;;8.50;;
78489;SDS011;67776;52.012;4.736;2023-06-19T14:15:33;12.77;;;8.73;;
78489;SDS011;67776;52.012;4.736;2023-06-19T14:17:59;10.77;;;8.70;;
78489;SDS011;67776;52.012;4.736;2023-06-19T14:20:24;11.93;;;8.97;;
78489;SDS011;67776;52.012;4.736;2023-06-19T14:22:50;10.73;;;8.73;;
78489;SDS011;67776;52.012;4.736;2023-06-19T14:25:15;10.57;;;8.60;;
78489;SDS011;67776;52.012;4.736;2023-06-19T14:27:40;12.40;;;8.90;;
78489;SDS011;67776;52.012;4.736;2023-06-19T14:30:06;12.75;;;8.43;;
78489;SDS011;67776;52.012;4.736;2023-06-19T14:32:33;12.13;;;8.57;;